Time;durP1;ratioP1;P1;durP2;ratioP2;P2;SDS_P1;SDS_P2;PMS_P1;PMS_P2;Temp;Humidity;BMP_temperature;BMP_pressure;BME280_temperature;BME280_humidity;BME280_pressure;Samples;Min_cycle;Max_cycle;Signal;HPM_P1;HPM_P2
2022/08/04 00:00:09;;;;;;;1.85;1.75;;;17.70;99.90;;;;;;6095407;23;20029;-75
2022/08/04 00:02:56;;;;;;;2.38;2.17;;;17.60;99.90;;;;;;6093408;23;20026;-75
2022/08/04 00:05:42;;;;;;;1.73;1.63;;;17.50;99.90;;;;;;6093380;23;20079;-75
2022/08/04 00:08:34;;;;;;;1.50;1.40;;;17.50;99.90;;;;;;6093567;23;20018;-75
2022/08/04 00:11:14;;;;;;;5.45;2.75;;;17.50;99.90;;;;;;6079413;23;20021;-75
2022/08/04 00:13:55;;;;;;;2.60;2.40;;;17.50;99.90;;;;;;6094797;23;20018;-75
2022/08/04 00:16:37;;;;;;;2.25;2.13;;;17.40;99.90;;;;;;6118165;23;20041;-75
2022/08/04 00:19:17;;;;;;;2.22;2.03;;;17.40;99.90;;;;;;6094467;23;20029;-74
2022/08/04 00:21:52;;;;;;;2.22;2.03;;;17.30;99.90;;;;;;6068032;23;20022;-75
2022/08/04 00:24:22;;;;;;;2.15;1.95;;;17.40;99.90;;;;;;6094049;23;20029;-75
2022/08/04 00:26:52;;;;;;;2.42;2.22;;;17.30;99.90;;;;;;6092213;23;20037;-75
2022/08/04 00:29:22;;;;;;;2.35;2.20;;;17.30;99.90;;;;;;6116612;23;20030;-75
2022/08/04 00:31:50;;;;;;;2.80;2.60;;;17.30;99.90;;;;;;6080029;23;20026;-75
2022/08/04 00:34:26;;;;;;;2.72;2.10;;;17.30;99.90;;;;;;6093962;23;20022;-77
2022/08/04 00:36:55;;;;;;;2.47;2.13;;;17.30;99.90;;;;;;6091861;23;20021;-76
2022/08/04 00:39:24;;;;;;;2.60;2.33;;;17.20;99.90;;;;;;6094349;23;20037;-79
2022/08/04 00:41:59;;;;;;;2.63;2.42;;;17.10;99.90;;;;;;6122103;23;20033;-80
2022/08/04 00:44:36;;;;;;;3.45;3.25;;;17.10;99.90;;;;;;6093861;23;20022;-79
2022/08/04 00:47:25;;;;;;;1.90;1.80;;;16.90;99.90;;;;;;6119046;23;20018;-79
2022/08/04 00:50:22;;;;;;;3.03;2.67;;;16.70;99.90;;;;;;6118110;23;20030;-79
2022/08/04 00:53:26;;;;;;;2.45;2.35;;;16.60;99.90;;;;;;6085728;23;20026;-79
2022/08/04 00:56:04;;;;;;;3.28;2.78;;;16.50;99.90;;;;;;6015921;23;20022;-79
2022/08/04 00:58:58;;;;;;;2.38;2.17;;;16.60;99.90;;;;;;6117927;23;20029;-80
2022/08/04 01:01:58;;;;;;;2.63;2.42;;;16.50;99.90;;;;;;6093646;23;20022;-79
2022/08/04 01:04:56;;;;;;;2.97;2.35;;;16.40;99.90;;;;;;6131287;23;20021;-79
2022/08/04 01:07:47;;;;;;;3.13;2.60;;;16.30;99.90;;;;;;6119370;23;20029;-79
2022/08/04 01:10:22;;;;;;;3.53;3.33;;;16.30;99.90;;;;;;6124041;23;20466;-86
2022/08/04 01:13:05;;;;;;;2.83;2.63;;;16.40;99.90;;;;;;6130034;23;20458;-86
2022/08/04 01:15:52;;;;;;;4.15;2.03;;;16.50;99.90;;;;;;6106185;23;20331;-86
2022/08/04 01:19:07;;;;;;;5.93;2.33;;;16.50;99.90;;;;;;6121004;23;20030;-86
2022/08/04 01:22:05;;;;;;;3.80;3.25;;;16.50;99.90;;;;;;6012827;23;20042;-84
2022/08/04 01:24:51;;;;;;;2.75;2.50;;;16.50;99.90;;;;;;6105206;23;20462;-83
2022/08/04 01:27:43;;;;;;;3.33;2.67;;;16.50;99.90;;;;;;6096449;23;20442;-86
2022/08/04 01:30:11;;;;;;;2.38;1.85;;;16.40;99.90;;;;;;6095289;23;20049;-86
2022/08/04 01:33:03;;;;;;;3.78;2.53;;;16.40;99.90;;;;;;6119891;23;20022;-85
2022/08/04 01:35:37;;;;;;;2.70;2.50;;;16.40;99.90;;;;;;6120424;23;20025;-85
2022/08/04 01:38:38;;;;;;;3.33;3.03;;;16.30;99.90;;;;;;6092599;23;20030;-83
2022/08/04 01:41:06;;;;;;;;;;;16.30;99.90;;;;;;6096368;23;20030;-84
2022/08/04 01:43:39;;;;;;;2.95;2.50;;;16.40;99.90;;;;;;6072639;23;19943;-85
2022/08/04 01:46:11;;;;;;;3.13;2.92;;;16.40;99.90;;;;;;6124777;23;20033;-86
2022/08/04 01:48:43;;;;;;;2.70;2.50;;;16.50;99.90;;;;;;6125644;23;20026;-85
2022/08/04 01:51:43;;;;;;;5.05;3.05;;;16.50;99.90;;;;;;6130141;23;20014;-85
2022/08/04 01:54:14;;;;;;;3.55;2.78;;;16.40;99.90;;;;;;6096037;23;20030;-84
2022/08/04 01:56:48;;;;;;;2.97;2.33;;;16.30;99.90;;;;;;6128647;23;20029;-83
2022/08/04 01:59:18;;;;;;;2.80;2.60;;;16.20;99.90;;;;;;6119979;23;20064;-86
2022/08/04 02:01:47;;;;;;;3.47;3.20;;;16.20;99.90;;;;;;6124228;23;20026;-86
2022/08/04 02:04:17;;;;;;;3.15;2.55;;;16.30;99.90;;;;;;6096511;23;20026;-84
2022/08/04 02:07:31;;;;;;;2.80;2.60;;;16.20;99.90;;;;;;6117965;23;20037;-86
2022/08/04 02:10:22;;;;;;;2.63;2.42;;;16.20;99.90;;;;;;6124252;23;20026;-84
2022/08/04 02:13:02;;;;;;;3.35;3.00;;;16.20;99.90;;;;;;6129613;23;20301;-84
2022/08/04 02:15:47;;;;;;;2.25;2.05;;;16.20;99.90;;;;;;6095453;23;20025;-86
2022/08/04 02:18:22;;;;;;;5.40;2.75;;;16.20;99.90;;;;;;6121353;23;20036;-85
2022/08/04 02:20:56;;;;;;;9.88;4.28;;;16.10;99.90;;;;;;6095971;23;20370;-84
2022/08/04 02:23:57;;;;;;;2.70;2.50;;;16.00;99.90;;;;;;6093902;23;20022;-86
2022/08/04 02:26:28;;;;;;;4.10;2.80;;;15.90;99.90;;;;;;6095514;23;20032;-86
2022/08/04 02:29:18;;;;;;;3.85;2.80;;;15.80;99.90;;;;;;6094483;23;20026;-86
2022/08/04 02:31:51;;;;;;;3.27;2.53;;;15.80;99.90;;;;;;6129631;23;20397;-85
2022/08/04 02:34:28;;;;;;;4.82;3.65;;;15.80;99.90;;;;;;6123123;23;20033;-84
2022/08/04 02:36:58;;;;;;;3.33;3.03;;;15.80;99.90;;;;;;6126862;23;20058;-86
2022/08/04 02:39:32;;;;;;;2.95;2.75;;;15.80;99.90;;;;;;6129042;23;20014;-85
2022/08/04 02:42:16;;;;;;;3.13;2.85;;;15.70;99.90;;;;;;6095222;23;20031;-85
2022/08/04 02:44:50;;;;;;;3.28;2.97;;;15.60;99.90;;;;;;6129218;23;20955;-86
2022/08/04 02:47:20;;;;;;;2.65;2.45;;;15.70;99.90;;;;;;6095384;23;20014;-84
2022/08/04 02:49:50;;;;;;;2.50;2.13;;;15.80;99.90;;;;;;6120865;23;20259;-86
2022/08/04 02:52:20;;;;;;;3.60;2.97;;;15.70;99.90;;;;;;6129644;23;20465;-84
2022/08/04 02:54:52;;;;;;;3.38;3.13;;;15.60;99.90;;;;;;6094880;23;20029;-85
2022/08/04 02:57:24;;;;;;;5.30;2.67;;;15.50;99.90;;;;;;6126821;23;20022;-86
2022/08/04 03:00:14;;;;;;;4.65;4.25;;;15.40;99.90;;;;;;6129485;23;20022;-85
2022/08/04 03:03:04;;;;;;;3.45;3.15;;;15.40;99.90;;;;;;6120730;23;20022;-85
2022/08/04 03:05:57;;;;;;;3.17;2.97;;;15.40;99.90;;;;;;6124395;23;20045;-84
2022/08/04 03:08:52;;;;;;;3.97;3.33;;;15.40;99.90;;;;;;6127663;23;20014;-86
2022/08/04 03:11:52;;;;;;;2.70;2.45;;;15.50;99.90;;;;;;6095358;23;20025;-86
2022/08/04 03:14:57;;;;;;;3.50;3.20;;;15.60;99.90;;;;;;6044221;23;20469;-83
2022/08/04 03:17:51;;;;;;;5.00;3.05;;;15.70;99.90;;;;;;6126318;23;20025;-84
2022/08/04 03:20:44;;;;;;;2.60;2.40;;;15.60;99.90;;;;;;6119408;23;20021;-83
2022/08/04 03:23:55;;;;;;;5.40;3.97;;;15.60;99.90;;;;;;6104287;23;20033;-85
2022/08/04 03:26:32;;;;;;;2.85;2.65;;;15.60;99.90;;;;;;6122249;23;20052;-84
2022/08/04 03:29:48;;;;;;;3.17;2.88;;;15.70;99.90;;;;;;6094121;23;20457;-85
2022/08/04 03:32:40;;;;;;;3.08;2.75;;;15.70;99.90;;;;;;6129177;23;20434;-85
2022/08/04 03:35:51;;;;;;;2.25;2.15;;;15.60;99.90;;;;;;6105002;23;20045;-85
2022/08/04 03:39:01;;;;;;;2.95;2.75;;;15.40;99.90;;;;;;6119570;23;20037;-84
2022/08/04 03:41:52;;;;;;;3.90;3.22;;;15.10;99.90;;;;;;6094815;23;20071;-86
2022/08/04 03:44:55;;;;;;;3.30;3.05;;;15.00;99.90;;;;;;6128115;23;20014;-83
2022/08/04 03:48:00;;;;;;;3.13;2.85;;;15.00;99.90;;;;;;6130305;23;20307;-86
2022/08/04 03:50:46;;;;;;;5.57;3.47;;;15.10;99.90;;;;;;6120274;23;20282;-86
2022/08/04 03:53:39;;;;;;;4.50;2.92;;;15.10;99.90;;;;;;6092554;23;20032;-84
2022/08/04 03:56:57;;;;;;;3.10;2.90;;;15.20;99.90;;;;;;6129282;23;20014;-83
2022/08/04 03:59:44;;;;;;;2.63;2.42;;;15.20;99.90;;;;;;6048757;23;20040;-86
2022/08/04 04:02:52;;;;;;;3.53;3.23;;;15.20;99.90;;;;;;6122267;23;20040;-85
2022/08/04 04:05:52;;;;;;;2.97;2.67;;;15.30;99.90;;;;;;6126572;23;20034;-85
2022/08/04 04:08:41;;;;;;;3.15;2.85;;;15.30;99.90;;;;;;6127370;23;20354;-86
2022/08/04 04:11:32;;;;;;;3.42;2.97;;;15.40;99.90;;;;;;6094816;23;20025;-86
2022/08/04 04:14:24;;;;;;;3.10;2.80;;;15.50;99.90;;;;;;6121926;23;20026;-86
2022/08/04 04:17:19;;;;;;;2.90;2.70;;;15.50;99.90;;;;;;6062795;23;20025;-85
2022/08/04 04:20:09;;;;;;;3.10;2.72;;;15.50;99.90;;;;;;6094712;23;20026;-86
2022/08/04 04:23:11;;;;;;;3.22;2.67;;;15.70;99.90;;;;;;6119469;23;20089;-86
2022/08/04 04:26:05;;;;;;;3.28;2.78;;;15.70;99.90;;;;;;6094334;23;20022;-84
2022/08/04 04:28:51;;;;;;;4.32;3.92;;;15.70;99.90;;;;;;6128744;23;20461;-84
2022/08/04 04:31:53;;;;;;;3.33;2.83;;;15.80;99.90;;;;;;6094675;23;20458;-82
2022/08/04 04:34:24;;;;;;;3.22;2.92;;;15.90;99.90;;;;;;6122193;23;20028;-83
2022/08/04 04:37:11;;;;;;;3.58;3.28;;;16.00;99.90;;;;;;6124465;23;20037;-84
2022/08/04 04:39:54;;;;;;;3.00;2.70;;;16.20;99.90;;;;;;6129569;23;20022;-83
2022/08/04 04:42:38;;;;;;;3.42;2.78;;;16.30;99.90;;;;;;6096541;23;20033;-83
2022/08/04 04:45:25;;;;;;;3.72;3.35;;;16.40;99.90;;;;;;6127145;23;20480;-84
2022/08/04 04:48:08;;;;;;;3.03;2.83;;;16.30;99.90;;;;;;6128376;23;20014;-82
2022/08/04 04:50:52;;;;;;;3.75;2.80;;;16.10;99.90;;;;;;6093966;23;20029;-86
2022/08/04 04:53:52;;;;;;;3.28;3.08;;;16.20;99.90;;;;;;6122874;23;20026;-86
2022/08/04 04:56:46;;;;;;;2.95;2.38;;;16.30;99.90;;;;;;6094334;23;20014;-86
2022/08/04 04:59:19;;;;;;;3.13;2.90;;;16.50;99.90;;;;;;6129831;23;20021;-85
2022/08/04 05:02:26;;;;;;;4.53;4.13;;;16.60;99.90;;;;;;6093523;23;20030;-85
2022/08/04 05:05:38;;;;;;;3.80;3.45;;;16.70;99.90;;;;;;6128236;23;20025;-86
2022/08/04 05:08:33;;;;;;;6.80;3.03;;;17.00;99.90;;;;;;6057923;23;20019;-86
2022/08/04 05:11:38;;;;;;;3.95;3.33;;;17.20;99.90;;;;;;6047075;23;20347;-85
2022/08/04 05:14:17;;;;;;;3.13;2.92;;;17.40;99.90;;;;;;6118656;23;20057;-86
2022/08/04 05:17:17;;;;;;;4.88;3.03;;;17.50;99.90;;;;;;6126658;23;20034;-86
2022/08/04 05:20:14;;;;;;;8.10;3.35;;;17.70;99.90;;;;;;6093850;23;20017;-87
2022/08/04 05:22:52;;;;;;;3.25;2.95;;;17.90;99.90;;;;;;6116822;23;20033;-86
2022/08/04 05:25:25;;;;;;;4.80;2.85;;;18.00;99.90;;;;;;6125663;23;20457;-86
2022/08/04 05:28:13;;;;;;;3.30;3.00;;;18.20;99.90;;;;;;6130126;23;20442;-83
2022/08/04 05:30:49;;;;;;;3.58;3.28;;;18.40;99.90;;;;;;6120434;23;20022;-86
2022/08/04 05:33:26;;;;;;;3.72;3.38;;;18.50;99.90;;;;;;6117992;23;20397;-86
2022/08/04 05:35:59;;;;;;;4.00;3.20;;;18.70;99.90;;;;;;6104406;23;20021;-86
2022/08/04 05:38:51;;;;;;;5.25;4.75;;;18.80;99.90;;;;;;6116351;23;20450;-86
2022/08/04 05:41:21;;;;;;;3.38;3.17;;;19.00;99.90;;;;;;6124235;23;20022;-86
2022/08/04 05:44:00;;;;;;;3.78;3.47;;;19.20;99.90;;;;;;6093992;23;20462;-87
2022/08/04 05:46:29;;;;;;;4.70;3.25;;;19.40;99.90;;;;;;6121131;23;20045;-86
2022/08/04 05:48:57;;;;;;;3.78;3.47;;;19.70;99.90;;;;;;6093314;23;20025;-84
2022/08/04 05:51:26;;;;;;;3.38;2.83;;;19.90;99.90;;;;;;6095157;23;20014;-85
2022/08/04 05:53:54;;;;;;;5.00;3.38;;;20.10;99.90;;;;;;6124641;23;20029;-84
2022/08/04 05:56:23;;;;;;;3.00;2.80;;;20.10;99.90;;;;;;6105471;23;20091;-85
2022/08/04 05:58:53;;;;;;;3.58;3.28;;;20.30;99.90;;;;;;6121210;23;20346;-86
2022/08/04 06:01:22;;;;;;;4.85;2.95;;;20.40;99.90;;;;;;6127104;23;20018;-86
2022/08/04 06:03:51;;;;;;;3.83;3.53;;;20.50;99.90;;;;;;6131744;23;20021;-86
2022/08/04 06:06:20;;;;;;;2.72;2.53;;;20.60;99.90;;;;;;6122140;23;20475;-84
2022/08/04 06:08:48;;;;;;;4.65;3.30;;;20.70;99.90;;;;;;6125774;23;20350;-86
2022/08/04 06:11:17;;;;;;;3.13;2.83;;;20.80;99.90;;;;;;6105743;23;20045;-86
2022/08/04 06:13:52;;;;;;;2.75;2.55;;;21.00;99.90;;;;;;6124081;23;20366;-78
2022/08/04 06:16:34;;;;;;;4.72;4.32;;;21.10;99.90;;;;;;6095881;23;20030;-79
2022/08/04 06:19:08;;;;;;;3.00;2.70;;;21.10;99.90;;;;;;6103736;23;20030;-79
2022/08/04 06:21:58;;;;;;;2.95;2.53;;;21.30;99.90;;;;;;6123001;23;20034;-77
2022/08/04 06:24:27;;;;;;;3.15;2.92;;;21.30;99.90;;;;;;6129434;23;20339;-79
2022/08/04 06:26:56;;;;;;;3.80;2.95;;;21.40;99.90;;;;;;6105538;23;20021;-79
2022/08/04 06:29:30;;;;;;;5.78;3.70;;;21.40;99.90;;;;;;6124674;23;20026;-78
2022/08/04 06:32:01;;;;;;;4.25;3.40;;;21.50;99.90;;;;;;6130790;23;20227;-79
2022/08/04 06:34:51;;;;;;;;;;;21.50;99.90;;;;;;6119872;23;20022;-78
2022/08/04 06:37:20;;;;;;;18.63;3.92;;;21.70;99.90;;;;;;6125515;23;19943;-80
2022/08/04 06:40:09;;;;;;;15.88;3.97;;;21.80;99.90;;;;;;6130638;23;20014;-78
2022/08/04 06:42:58;;;;;;;4.78;3.35;;;22.00;99.90;;;;;;6103162;23;20045;-79
2022/08/04 06:45:26;;;;;;;4.20;3.78;;;22.10;99.90;;;;;;6126752;23;20342;-78
2022/08/04 06:47:55;;;;;;;2.88;2.67;;;22.10;99.90;;;;;;6128189;23;20335;-79
2022/08/04 06:50:24;;;;;;;4.75;3.78;;;22.20;99.90;;;;;;6121965;23;20053;-81
2022/08/04 06:53:12;;;;;;;3.80;3.50;;;22.20;99.90;;;;;;6125508;23;20457;-81
2022/08/04 06:55:43;;;;;;;3.88;3.50;;;22.30;99.90;;;;;;6131184;23;20697;-87
2022/08/04 06:58:12;;;;;;;4.95;3.50;;;22.40;99.90;;;;;;6094135;23;20018;-87
2022/08/04 07:00:42;;;;;;;3.50;3.28;;;22.40;99.90;;;;;;6094628;23;20025;-87
2022/08/04 07:03:10;;;;;;;5.00;3.80;;;22.50;99.90;;;;;;6118661;23;20481;-87
2022/08/04 07:05:39;;;;;;;3.60;3.00;;;22.50;99.90;;;;;;6124075;23;20250;-87
2022/08/04 07:08:10;;;;;;;10.43;5.07;;;22.50;99.90;;;;;;6128524;23;20063;-87
2022/08/04 07:10:39;;;;;;;;;;;22.70;99.90;;;;;;6095158;23;20026;-87
2022/08/04 07:13:08;;;;;;;3.60;3.30;;;22.80;99.90;;;;;;6094528;23;19924;-86
2022/08/04 07:15:40;;;;;;;2.88;2.67;;;22.90;99.90;;;;;;6130925;23;20013;-85
2022/08/04 07:18:07;;;;;;;4.30;3.90;;;23.00;99.90;;;;;;6093195;23;20484;-77
2022/08/04 07:20:40;;;;;;;3.42;3.10;;;23.10;99.90;;;;;;6129576;23;20025;-77
2022/08/04 07:23:10;;;;;;;4.70;3.53;;;23.30;99.90;;;;;;6129045;23;20010;-84
2022/08/04 07:25:39;;;;;;;3.83;2.97;;;23.30;99.90;;;;;;6125626;23;20322;-84
2022/08/04 07:28:28;;;;;;;3.40;3.08;;;23.60;99.90;;;;;;6093752;23;20246;-84
2022/08/04 07:30:57;;;;;;;3.22;2.72;;;23.70;99.90;;;;;;6131069;23;20021;-84
2022/08/04 07:33:26;;;;;;;11.57;3.83;;;23.80;99.90;;;;;;6125906;23;20466;-84
2022/08/04 07:35:55;;;;;;;8.23;4.40;;;23.90;99.90;;;;;;6131118;23;20010;-85
2022/08/04 07:38:40;;;;;;;7.47;4.03;;;24.00;99.90;;;;;;6092406;23;20026;-85
2022/08/04 07:41:23;;;;;;;3.17;2.90;;;24.20;99.90;;;;;;6103125;23;20034;-84
2022/08/04 07:44:07;;;;;;;3.35;2.75;;;24.30;99.90;;;;;;6129618;23;20022;-86
2022/08/04 07:46:36;;;;;;;3.35;3.05;;;24.30;99.90;;;;;;6120925;23;20063;-84
2022/08/04 07:49:05;;;;;;;3.53;3.00;;;24.40;99.90;;;;;;6121097;23;20025;-85
2022/08/04 07:51:34;;;;;;;3.78;3.47;;;24.60;99.90;;;;;;6129656;23;20018;-85
2022/08/04 07:54:04;;;;;;;5.50;3.25;;;24.70;99.90;;;;;;6123237;23;20045;-84
2022/08/04 07:56:32;;;;;;;21.13;3.53;;;24.90;99.90;;;;;;6129338;23;20013;-83
2022/08/04 07:59:01;;;;;;;4.15;3.22;;;24.90;99.90;;;;;;6130063;23;20018;-82
2022/08/04 08:01:29;;;;;;;4.65;3.17;;;24.90;99.90;;;;;;6125371;23;20026;-83
2022/08/04 08:03:57;;;;;;;3.83;3.53;;;24.90;99.90;;;;;;6094688;23;20018;-84
2022/08/04 08:06:28;;;;;;;5.43;4.45;;;25.10;99.90;;;;;;6119470;23;20022;-85
2022/08/04 08:09:14;;;;;;;3.28;2.88;;;25.10;99.90;;;;;;6100551;23;20259;-82
2022/08/04 08:11:46;;;;;;;3.78;3.47;;;25.00;99.90;;;;;;6130470;23;20018;-85
2022/08/04 08:14:35;;;;;;;5.43;3.90;;;25.20;99.90;;;;;;6120006;23;20458;-84
2022/08/04 08:17:04;;;;;;;7.55;3.60;;;25.20;99.90;;;;;;6126958;23;20533;-85
2022/08/04 08:19:33;;;;;;;4.15;3.67;;;25.20;99.90;;;;;;6093916;23;20025;-84
2022/08/04 08:22:02;;;;;;;6.13;3.30;;;25.30;99.90;;;;;;6121524;23;20044;-85
2022/08/04 08:24:31;;;;;;;3.08;2.78;;;25.50;99.90;;;;;;6129070;23;20426;-85
2022/08/04 08:27:03;;;;;;;3.83;2.63;;;25.50;99.90;;;;;;6130431;23;20022;-84
2022/08/04 08:29:33;;;;;;;3.33;3.13;;;25.40;99.90;;;;;;6122912;23;20501;-85
2022/08/04 08:32:02;;;;;;;3.20;2.95;;;25.60;99.90;;;;;;6128480;23;20025;-85
2022/08/04 08:34:37;;;;;;;3.53;3.28;;;25.80;99.90;;;;;;6119482;23;20037;-84
2022/08/04 08:37:28;;;;;;;3.78;3.45;;;25.90;99.90;;;;;;6125013;23;20021;-83
2022/08/04 08:40:14;;;;;;;2.90;2.65;;;25.90;99.90;;;;;;6129588;23;20193;-86
2022/08/04 08:43:31;;;;;;;2.83;2.50;;;25.90;99.90;;;;;;6118367;23;20025;-85
2022/08/04 08:46:26;;;;;;;2.72;2.53;;;26.00;99.90;;;;;;6070048;23;20432;-84
2022/08/04 08:49:30;;;;;;;2.97;2.72;;;26.20;99.90;;;;;;6122196;23;20485;-85
2022/08/04 08:52:42;;;;;;;2.90;2.70;;;26.40;99.90;;;;;;6128613;23;20014;-85
2022/08/04 08:55:53;;;;;;;4.47;3.55;;;26.40;99.90;;;;;;6108229;23;20030;-84
2022/08/04 08:58:39;;;;;;;3.08;2.42;;;26.40;99.90;;;;;;6093256;23;20026;-86
2022/08/04 09:01:31;;;;;;;15.80;2.72;;;26.40;99.90;;;;;;6126776;23;20022;-85
2022/08/04 09:04:20;;;;;;;3.47;2.75;;;26.60;99.90;;;;;;6130013;23;20014;-84
2022/08/04 09:07:02;;;;;;;4.53;3.20;;;26.70;99.90;;;;;;6117338;23;20288;-84
2022/08/04 09:09:45;;;;;;;6.40;3.03;;;26.60;99.90;;;;;;6124323;23;20018;-84
2022/08/04 09:12:28;;;;;;;2.53;2.33;;;26.30;99.90;;;;;;6128715;23;20014;-86
2022/08/04 09:15:11;;;;;;;2.30;2.20;;;26.60;99.90;;;;;;6093589;23;20033;-84
2022/08/04 09:17:54;;;;;;;4.78;2.45;;;26.60;99.90;;;;;;6124087;23;20026;-84
2022/08/04 09:20:53;;;;;;;3.20;2.90;;;26.70;99.90;;;;;;6130198;23;20014;-85
2022/08/04 09:23:59;;;;;;;3.15;2.85;;;26.80;99.90;;;;;;6105100;23;20034;-84
2022/08/04 09:26:37;;;;;;;2.40;2.20;;;26.90;99.90;;;;;;6120181;23;20431;-85
2022/08/04 09:29:07;;;;;;;2.90;2.70;;;27.00;99.90;;;;;;6126094;23;20079;-85
2022/08/04 09:31:47;;;;;;;2.03;1.90;;;27.10;99.90;;;;;;6129874;23;20025;-85
2022/08/04 09:35:11;;;;;;;2.25;2.08;;;27.10;99.90;;;;;;6122698;23;20022;-85
2022/08/04 09:37:51;;;;;;;4.72;2.35;;;27.00;99.90;;;;;;6122606;23;20030;-82
2022/08/04 09:40:57;;;;;;;3.17;2.97;;;27.00;99.90;;;;;;6105406;23;20020;-83
2022/08/04 09:43:30;;;;;;;2.72;2.53;;;27.20;99.90;;;;;;6109921;23;20033;-86
2022/08/04 09:46:26;;;;;;;3.67;3.05;;;27.20;99.90;;;;;;6123899;23;20030;-86
2022/08/04 09:49:18;;;;;;;3.28;2.97;;;27.40;99.90;;;;;;6123996;23;20030;-84
2022/08/04 09:52:05;;;;;;;3.05;2.47;;;27.50;99.90;;;;;;6103552;23;20021;-85
2022/08/04 09:54:58;;;;;;;2.80;2.30;;;27.50;99.90;;;;;;6095976;23;20472;-84
2022/08/04 09:57:44;;;;;;;4.78;2.92;;;27.70;99.90;;;;;;6127025;23;20033;-84
2022/08/04 10:00:16;;;;;;;3.22;2.92;;;27.80;99.90;;;;;;6131015;23;20022;-83
2022/08/04 10:02:48;;;;;;;2.25;1.98;;;27.90;99.70;;;;;;6119383;23;20060;-84
2022/08/04 10:05:37;;;;;;;3.28;2.90;;;27.90;99.90;;;;;;6127773;23;20022;-83
2022/08/04 10:08:52;;;;;;;2.80;2.60;;;27.80;99.90;;;;;;6093687;23;20370;-83
2022/08/04 10:11:29;;;;;;;2.38;2.17;;;28.10;99.90;;;;;;6109118;23;20034;-83
2022/08/04 10:14:09;;;;;;;2.80;2.60;;;28.20;99.90;;;;;;6125050;23;20022;-83
2022/08/04 10:16:50;;;;;;;2.13;2.03;;;28.40;99.60;;;;;;6129510;23;20010;-84
2022/08/04 10:19:50;;;;;;;2.53;2.33;;;28.60;99.30;;;;;;6131361;23;20010;-85
2022/08/04 10:22:30;;;;;;;2.70;2.50;;;28.60;97.60;;;;;;6095483;23;20026;-83
2022/08/04 10:25:32;;;;;;;3.28;2.33;;;28.70;97.50;;;;;;6095074;23;20034;-84
2022/08/04 10:28:23;;;;;;;2.38;1.88;;;28.80;97.40;;;;;;6130696;23;20018;-84
2022/08/04 10:30:59;;;;;;;1.88;1.58;;;28.80;96.30;;;;;;6118979;23;20032;-83
2022/08/04 10:33:40;;;;;;;1.88;1.77;;;28.80;95.80;;;;;;6126098;23;20022;-83
2022/08/04 10:36:16;;;;;;;9.07;1.92;;;28.90;96.00;;;;;;6131001;23;20029;-83
2022/08/04 10:39:04;;;;;;;3.53;1.70;;;29.00;95.80;;;;;;6118777;23;20028;-84
2022/08/04 10:41:41;;;;;;;1.33;1.08;;;29.10;95.10;;;;;;6126146;23;20504;-86
2022/08/04 10:44:17;;;;;;;2.53;1.85;;;29.20;93.90;;;;;;6105379;23;20029;-84
2022/08/04 10:46:51;;;;;;;1.85;1.52;;;29.10;95.60;;;;;;6094536;23;20091;-85
2022/08/04 10:49:32;;;;;;;1.58;1.48;;;29.20;96.30;;;;;;6121472;23;20331;-84
2022/08/04 10:52:21;;;;;;;2.10;1.45;;;29.30;93.80;;;;;;6129175;23;20334;-82
2022/08/04 10:55:20;;;;;;;2.25;2.10;;;29.30;92.50;;;;;;6095290;23;20022;-86
2022/08/04 10:57:55;;;;;;;19.98;2.22;;;29.30;94.70;;;;;;6069964;23;20546;-83
2022/08/04 11:00:27;;;;;;;3.38;2.22;;;29.30;92.20;;;;;;6130674;23;20064;-82
2022/08/04 11:03:10;;;;;;;2.28;1.98;;;29.30;93.90;;;;;;6119789;23;20548;-83
2022/08/04 11:05:45;;;;;;;2.38;2.13;;;29.40;92.20;;;;;;6125564;23;20044;-84
2022/08/04 11:08:34;;;;;;;2.45;2.20;;;29.40;95.20;;;;;;6128409;23;20405;-85
2022/08/04 11:11:17;;;;;;;5.80;2.30;;;29.50;94.40;;;;;;6103598;23;20034;-83
2022/08/04 11:13:56;;;;;;;2.40;2.20;;;29.70;92.70;;;;;;6125233;23;20030;-84
2022/08/04 11:16:29;;;;;;;2.00;1.90;;;29.80;93.70;;;;;;6130797;23;20022;-84
2022/08/04 11:19:18;;;;;;;5.22;2.40;;;29.60;93.50;;;;;;6117776;23;20022;-84
2022/08/04 11:21:56;;;;;;;2.00;1.90;;;29.60;92.60;;;;;;6123035;23;20439;-82
2022/08/04 11:24:54;;;;;;;21.30;2.63;;;29.70;92.40;;;;;;6094840;23;20354;-83
2022/08/04 11:27:34;;;;;;;1.63;1.52;;;29.80;91.30;;;;;;6108268;23;20026;-83
2022/08/04 11:30:08;;;;;;;2.37;2.17;;;29.90;92.60;;;;;;6122886;23;20048;-84
2022/08/04 11:33:04;;;;;;;2.33;2.13;;;30.00;91.00;;;;;;6093998;23;20465;-84
2022/08/04 11:35:45;;;;;;;2.05;1.95;;;30.10;91.20;;;;;;6130967;23;20033;-83
2022/08/04 11:38:42;;;;;;;3.05;2.55;;;30.20;90.80;;;;;;6118400;23;20032;-82
2022/08/04 11:41:18;;;;;;;2.67;2.47;;;30.20;92.60;;;;;;6127226;23;20025;-83
2022/08/04 11:43:57;;;;;;;2.35;2.25;;;30.40;93.00;;;;;;6129334;23;20024;-84
2022/08/04 11:46:43;;;;;;;3.40;2.13;;;30.60;92.30;;;;;;6121097;23;20040;-84
2022/08/04 11:49:29;;;;;;;1.70;1.55;;;30.80;92.10;;;;;;6123136;23;20029;-83
2022/08/04 11:51:59;;;;;;;1.75;1.58;;;30.80;92.00;;;;;;6127217;23;20021;-83
2022/08/04 11:54:27;;;;;;;5.55;2.05;;;30.80;91.40;;;;;;6121763;23;20026;-84
2022/08/04 11:56:55;;;;;;;12.32;2.30;;;30.80;90.60;;;;;;6093784;23;20025;-84
2022/08/04 11:59:23;;;;;;;2.90;2.70;;;30.80;91.30;;;;;;6129775;23;20038;-84
2022/08/04 12:02:13;;;;;;;1.95;1.75;;;30.90;91.70;;;;;;6124003;23;20528;-83
2022/08/04 12:04:57;;;;;;;1.60;1.50;;;31.00;91.50;;;;;;6128316;23;20033;-84
2022/08/04 12:07:30;;;;;;;2.50;2.03;;;31.00;90.00;;;;;;6128487;23;20025;-84
2022/08/04 12:10:21;;;;;;;1.50;1.40;;;30.80;90.60;;;;;;6122946;23;20033;-82
2022/08/04 12:13:27;;;;;;;1.85;1.75;;;30.80;91.60;;;;;;6127029;23;20353;-83
2022/08/04 12:16:24;;;;;;;1.50;1.40;;;30.80;90.60;;;;;;6130684;23;20436;-83
2022/08/04 12:19:01;;;;;;;3.88;2.13;;;30.60;89.60;;;;;;6117334;23;20041;-84
2022/08/04 12:21:41;;;;;;;2.75;1.83;;;30.50;88.40;;;;;;6124746;23;20030;-82
2022/08/04 12:24:23;;;;;;;4.82;1.60;;;30.50;91.70;;;;;;6130548;23;20014;-82
2022/08/04 12:26:55;;;;;;;7.10;2.10;;;30.70;90.70;;;;;;6119673;23;20033;-83
2022/08/04 12:29:26;;;;;;;1.98;1.88;;;30.90;89.60;;;;;;6123782;23;20060;-83
2022/08/04 12:32:03;;;;;;;2.17;1.98;;;31.00;90.40;;;;;;6130493;23;20018;-77
2022/08/04 12:34:37;;;;;;;1.80;1.70;;;31.30;88.30;;;;;;6095147;23;20022;-76
2022/08/04 12:37:22;;;;;;;7.10;2.45;;;31.40;91.50;;;;;;6125304;23;20038;-77
2022/08/04 12:39:52;;;;;;;3.08;2.50;;;31.40;89.50;;;;;;6129890;23;20021;-75
2022/08/04 12:42:57;;;;;;;3.80;1.83;;;31.40;88.60;;;;;;6094531;23;20033;-77
2022/08/04 12:45:28;;;;;;;3.83;1.90;;;31.30;89.50;;;;;;6125605;23;20072;-77
2022/08/04 12:47:59;;;;;;;1.85;1.75;;;31.40;89.60;;;;;;6128754;23;20021;-77
2022/08/04 12:50:28;;;;;;;3.25;2.42;;;31.50;90.50;;;;;;6119922;23;20026;-76
2022/08/04 12:52:57;;;;;;;1.92;1.83;;;31.70;88.00;;;;;;6124212;23;20030;-76
2022/08/04 12:55:33;;;;;;;5.57;1.50;;;31.80;89.40;;;;;;6130442;23;20045;-82
2022/08/04 12:58:03;;;;;;;2.40;2.20;;;31.80;86.90;;;;;;6093432;23;20029;-84
2022/08/04 13:00:35;;;;;;;3.97;2.08;;;31.70;85.80;;;;;;6131173;23;20018;-83
2022/08/04 13:03:15;;;;;;;2.95;1.88;;;31.70;88.40;;;;;;6131802;23;20017;-83
2022/08/04 13:05:44;;;;;;;5.43;2.33;;;31.70;87.50;;;;;;6125988;23;20037;-83
2022/08/04 13:08:14;;;;;;;2.78;2.03;;;31.50;85.70;;;;;;6129530;23;20014;-83
2022/08/04 13:10:46;;;;;;;2.78;1.67;;;31.30;86.70;;;;;;6122524;23;20033;-84
2022/08/04 13:13:41;;;;;;;1.63;1.52;;;31.30;85.80;;;;;;6128401;23;20037;-83
2022/08/04 13:16:10;;;;;;;2.25;1.95;;;31.30;88.70;;;;;;6120955;23;20026;-84
2022/08/04 13:18:47;;;;;;;2.63;2.03;;;31.50;85.10;;;;;;6121557;23;20030;-83
2022/08/04 13:21:21;;;;;;;2.92;2.30;;;31.40;85.70;;;;;;6128262;23;20033;-84
2022/08/04 13:24:15;;;;;;;3.47;1.63;;;31.20;85.20;;;;;;6096233;23;20025;-85
2022/08/04 13:27:09;;;;;;;5.60;2.13;;;31.30;88.10;;;;;;6121378;23;20025;-86
2022/08/04 13:29:44;;;;;;;3.95;1.58;;;31.40;86.20;;;;;;6124545;23;20469;-86
2022/08/04 13:32:28;;;;;;;3.05;2.22;;;31.70;90.20;;;;;;6130870;23;20160;-84
2022/08/04 13:34:59;;;;;;;3.20;2.30;;;31.50;81.80;;;;;;6131777;23;20014;-85
2022/08/04 13:37:33;;;;;;;2.63;1.95;;;31.40;84.40;;;;;;6124972;23;20026;-84
2022/08/04 13:40:08;;;;;;;2.42;2.08;;;31.40;84.60;;;;;;6131351;23;20035;-85
2022/08/04 13:42:37;;;;;;;7.68;2.60;;;31.40;84.70;;;;;;6120829;23;20029;-85
2022/08/04 13:45:07;;;;;;;7.55;2.08;;;31.40;84.10;;;;;;6127017;23;20061;-85
2022/08/04 13:47:36;;;;;;;;;;;31.30;81.90;;;;;;6132473;23;20037;-84
2022/08/04 13:50:08;;;;;;;2.67;1.48;;;31.50;85.80;;;;;;6095162;23;20329;-84
2022/08/04 13:52:40;;;;;;;11.05;2.38;;;31.40;86.40;;;;;;6093419;23;20021;-85
2022/08/04 13:55:28;;;;;;;;;;;31.30;85.80;;;;;;6096693;23;20022;-85
2022/08/04 13:58:09;;;;;;;6.90;2.13;;;31.40;87.20;;;;;;6121000;23;20171;-83
2022/08/04 14:00:48;;;;;;;2.75;2.55;;;31.50;84.10;;;;;;6130312;23;20446;-83
2022/08/04 14:03:37;;;;;;;5.60;2.80;;;31.40;85.80;;;;;;6131164;23;20017;-84